Giewont — C6YE4 — position and weather

sailwx.info

Track history (hours):
 
Tides and Currents Weather Stations Pressure Air Temp Water Temp Dewpoint Dewpoint Depression Visibility Wind Speed Wind Dir Waves Ship Positions

Giewont

Last reported at 2016-Dec-06 09:27 UTC. Time now 2016-Dec-07 08:45 UTC.
Position N 36°01' W 005°20'.

Length 229 m; draft 12.2 m.

Type: Cargo ship. MMSI: 311029800.

Date/timePositionNaut miles runAvg speedWind from/ knotsBaromVisibWave heightAir tempDewpointWater temp
2016-Dec-06 09:27N 36°01' W 005°20'9511.4
2016-Dec-06 01:06N 36°16' W 003°24'611.7
2016-Dec-06 00:33N 36°17' W 003°16'1211.6
2016-Dec-05 23:33N 36°19' W 003°02'1312.2
2016-Dec-05 22:31N 36°21' W 002°46'  
2016-Dec-03 02:27N 36°47' E 013°36'1011.5
2016-Dec-03 01:33N 36°45' E 013°48'1111.4
2016-Dec-03 00:33N 36°43' E 014°02'1111.3
2016-Dec-02 23:33N 36°41' E 014°16'1111.2
2016-Dec-02 22:33N 36°38' E 014°30'45510.1
2016-Dec-01 01:28N 37°16' E 023°57'1112.1
2016-Dec-01 00:31N 37°26' E 024°04'1212.2
2016-Nov-30 23:33N 37°36' E 024°11'1212.5
2016-Nov-30 22:33N 37°46' E 024°21'28411.3
2016-Nov-29 21:32N 40°56' E 028°54'  
Track history (hours):
 
Tides and Currents Weather Stations Pressure Air Temp Water Temp Dewpoint Dewpoint Depression Visibility Wind Speed Wind Dir Waves Ship Positions

Giewont

Last reported at 2016-Dec-06 09:27 UTC. Time now 2016-Dec-07 08:45 UTC.
Position N 36°01' W 005°20'.

Length 229 m; draft 12.2 m.

Type: Cargo ship. MMSI: 311029800.

Date/timePositionNaut miles runAvg speedWind from/ knotsBaromVisibWave heightAir tempDewpointWater temp
2016-Dec-06 09:27N 36°01' W 005°20'9511.4
2016-Dec-06 01:06N 36°16' W 003°24'611.7
2016-Dec-06 00:33N 36°17' W 003°16'1211.6
2016-Dec-05 23:33N 36°19' W 003°02'1312.2
2016-Dec-05 22:31N 36°21' W 002°46'  
2016-Dec-03 02:27N 36°47' E 013°36'1011.5
2016-Dec-03 01:33N 36°45' E 013°48'1111.4
2016-Dec-03 00:33N 36°43' E 014°02'1111.3
2016-Dec-02 23:33N 36°41' E 014°16'1111.2
2016-Dec-02 22:33N 36°38' E 014°30'45510.1
2016-Dec-01 01:28N 37°16' E 023°57'1112.1
2016-Dec-01 00:31N 37°26' E 024°04'1212.2
2016-Nov-30 23:33N 37°36' E 024°11'1212.5
2016-Nov-30 22:33N 37°46' E 024°21'28411.3
2016-Nov-29 21:32N 40°56' E 028°54'  

Dump ship's entire track history